| Date | Time | Temp. (oF) | Dew Point (oF) | Rel. Hum. (%) | Press. (in.) | Wind Dir. | Wind Speed (mph) | Hourly Rainfall (in.) |
|
|---|---|---|---|---|---|---|---|---|---|
| 1 | 01/06 | 00:00 | 19 | 3 | 51 | 30.44 | N | 2 | 0.00 |
| 2 | 01/05 | 23:00 | 20 | 3 | 49 | 30.45 | W | 7 | 0.00 |
| 3 | 01/05 | 22:00 | 20 | 2 | 47 | 30.44 | NNW | 4 | 0.00 |
| 4 | 01/05 | 21:00 | 21 | 3 | 47 | 30.43 | WNW | 5 | 0.00 |
| 5 | 01/05 | 20:00 | 22 | 5 | 48 | 30.42 | NNW | 5 | 0.00 |
| 6 | 01/05 | 19:00 | 23 | 5 | 46 | 30.40 | NNW | 8 | 0.00 |
| 7 | 01/05 | 18:00 | 24 | 6 | 46 | 30.39 | N | 7 | 0.00 |
| 8 | 01/05 | 17:00 | 26 | 4 | 40 | 30.31 | WSW | 11 | 0.00 |
| 9 | 01/05 | 16:00 | 28 | 4 | 37 | 30.29 | W | 13 | 0.00 |
| 10 | 01/05 | 15:00 | 30 | 4 | 34 | 30.27 | WSW | 11 | 0.00 |
| 11 | 01/05 | 14:00 | 31 | 5 | 33 | 30.24 | WSW | 9 | 0.00 |
| 12 | 01/05 | 13:00 | 32 | 8 | 37 | 30.23 | NNW | 18 | 0.00 |
| 13 | 01/05 | 12:00 | 33 | 10 | 38 | 30.24 | SW | 15 | 0.00 |
| 14 | 01/05 | 11:00 | 34 | 16 | 48 | 30.23 | W | 10 | 0.00 |
| 15 | 01/05 | 10:00 | 31 | 19 | 61 | 30.22 | WNW | 8 | 0.00 |
| 16 | 01/05 | 09:00 | 31 | 22 | 69 | 30.20 | N | 7 | 0.00 |
| 17 | 01/05 | 08:00 | 33 | 21 | 63 | 30.16 | NNW | 7 | 0.00 |
| 18 | 01/05 | 07:00 | 34 | 21 | 61 | 30.13 | WNW | 12 | 0.00 |
| 19 | 01/05 | 06:00 | 36 | 24 | 63 | 30.07 | W | 11 | 0.00 |
| 20 | 01/05 | 05:00 | 37 | 25 | 63 | 30.04 | W | 13 | 0.00 |
| 21 | 01/05 | 04:00 | 38 | 27 | 66 | 30.00 | WSW | 10 | 0.00 |
| 22 | 01/05 | 03:00 | 39 | 27 | 64 | 29.99 | S | 6 | 0.00 |
| 23 | 01/05 | 02:00 | 40 | 28 | 64 | 29.97 | WSW | 15 | 0.00 |
| 24 | 01/05 | 01:00 | 41 | 30 | 65 | 29.93 | SSW | 13 | 0.00 |